createdAt,value
2019-02-06T00:02:37.114Z,64.45
2019-02-06T00:05:25.938Z,66.02
2019-02-06T00:08:17.084Z,64.75
2019-02-06T00:11:06.553Z,75.87
2019-02-06T00:13:55.614Z,58.98
2019-02-06T00:16:45.040Z,70.52
2019-02-06T00:19:34.311Z,70.45
2019-02-06T00:22:23.830Z,78.25
2019-02-06T00:25:12.885Z,63.98
2019-02-06T00:28:02.580Z,75.93
2019-02-06T00:30:52.056Z,69.40
2019-02-06T00:33:41.391Z,60.53
2019-02-06T00:36:30.809Z,58.17
2019-02-06T00:39:20.188Z,71.57
2019-02-06T00:42:09.133Z,62.67
2019-02-06T00:44:58.559Z,59.90
2019-02-06T00:47:48.451Z,63.00
2019-02-06T00:50:38.593Z,53.33
2019-02-06T00:53:27.741Z,49.65
2019-02-06T00:56:17.120Z,51.98
2019-02-06T00:59:05.960Z,52.80
2019-02-06T01:01:55.555Z,51.30
2019-02-06T01:04:44.294Z,57.80
2019-02-06T01:07:33.583Z,55.17
2019-02-06T01:10:23.209Z,50.98
2019-02-06T01:13:12.733Z,48.80
2019-02-06T01:16:02.818Z,45.15
2019-02-06T01:18:51.839Z,44.03
2019-02-06T01:21:41.070Z,45.92
2019-02-06T01:24:30.096Z,43.00
2019-02-06T01:27:19.016Z,45.40
2019-02-06T01:30:22.258Z,43.50
2019-02-06T01:33:11.454Z,40.73
2019-02-06T01:36:00.915Z,47.43
2019-02-06T01:38:50.292Z,43.60
2019-02-06T01:41:39.469Z,39.90
2019-02-06T01:44:28.139Z,42.08
2019-02-06T01:47:17.585Z,38.20
2019-02-06T01:50:11.756Z,41.53
2019-02-06T01:53:00.629Z,33.07
2019-02-06T01:55:49.675Z,37.00
2019-02-06T01:58:39.674Z,41.80
2019-02-06T02:01:28.638Z,38.98
2019-02-06T02:04:18.019Z,33.60
2019-02-06T02:07:07.578Z,40.75
2019-02-06T02:09:57.349Z,43.75
2019-02-06T02:12:46.848Z,40.03
2019-02-06T02:15:36.281Z,42.23
2019-02-06T02:18:25.893Z,39.67
2019-02-06T02:21:15.158Z,48.93
2019-02-06T02:24:06.067Z,46.63
2019-02-06T02:26:55.354Z,47.55
2019-02-06T02:29:44.487Z,49.33
2019-02-06T02:32:33.776Z,49.67
2019-02-06T02:35:22.637Z,48.17
2019-02-06T02:38:11.374Z,59.40
2019-02-06T02:41:00.184Z,59.25
2019-02-06T02:43:49.941Z,62.73
2019-02-06T02:46:39.415Z,66.60
2019-02-06T02:49:28.684Z,65.42
2019-02-06T02:52:18.563Z,71.67
2019-02-06T02:55:11.808Z,65.75
2019-02-06T02:58:00.889Z,64.27
2019-02-06T03:00:51.683Z,62.90
2019-02-06T03:03:42.571Z,63.92
2019-02-06T03:06:31.596Z,70.83
2019-02-06T03:09:20.311Z,63.15
2019-02-06T03:12:09.181Z,66.22
2019-02-06T03:14:57.993Z,69.87
2019-02-06T03:17:47.578Z,74.50
2019-02-06T03:20:36.216Z,67.75
2019-02-06T03:23:25.643Z,68.62
2019-02-06T03:26:14.648Z,75.10
2019-02-06T03:29:03.976Z,67.95
2019-02-06T03:31:52.947Z,75.90
2019-02-06T03:34:41.890Z,72.60
2019-02-06T03:37:31.688Z,77.20
2019-02-06T03:40:21.087Z,76.93
2019-02-06T03:43:10.328Z,67.40
2019-02-06T03:45:59.896Z,70.08
2019-02-06T03:48:49.066Z,66.82
2019-02-06T03:51:37.833Z,73.07
2019-02-06T03:54:27.349Z,71.92
2019-02-06T03:57:16.592Z,65.47
2019-02-06T04:00:13.509Z,66.75
2019-02-06T04:03:02.965Z,70.70
2019-02-06T04:05:51.956Z,65.83
2019-02-06T04:08:41.117Z,63.13
2019-02-06T04:11:29.866Z,64.22
2019-02-06T04:14:19.144Z,63.48
2019-02-06T04:17:08.107Z,66.30
2019-02-06T04:19:57.138Z,67.95
2019-02-06T04:22:47.806Z,66.50
2019-02-06T04:25:36.760Z,70.87
2019-02-06T04:28:26.312Z,62.38
2019-02-06T04:31:15.313Z,64.37
2019-02-06T04:34:04.686Z,72.47
2019-02-06T04:37:05.792Z,63.20
2019-02-06T04:39:44.564Z,75.62
2019-02-06T04:42:33.782Z,67.22
2019-02-06T04:45:22.817Z,73.73
2019-02-06T04:48:12.533Z,65.50
2019-02-06T04:51:01.839Z,66.28
2019-02-06T04:53:50.871Z,68.17
2019-02-06T04:56:39.469Z,70.67
2019-02-06T04:59:28.894Z,66.95
2019-02-06T05:02:18.263Z,65.07
2019-02-06T05:05:08.254Z,65.50
2019-02-06T05:07:57.010Z,67.25
2019-02-06T05:10:46.805Z,60.60
2019-02-06T05:13:36.572Z,67.10
2019-02-06T05:16:25.530Z,65.67
2019-02-06T05:19:14.090Z,65.00
2019-02-06T05:22:02.922Z,66.42
2019-02-06T05:24:52.507Z,67.12
2019-02-06T05:27:41.580Z,64.17
2019-02-06T05:30:30.468Z,63.67
2019-02-06T05:33:19.815Z,65.52
2019-02-06T05:36:09.373Z,68.28
2019-02-06T05:38:58.590Z,60.12
2019-02-06T05:41:47.506Z,70.57
2019-02-06T05:44:37.101Z,62.85
2019-02-06T05:47:25.955Z,57.48
2019-02-06T05:50:20.041Z,61.42
2019-02-06T05:53:09.408Z,63.68
2019-02-06T05:55:58.538Z,56.15
2019-02-06T05:58:47.753Z,66.12
2019-02-06T06:01:37.182Z,57.08
2019-02-06T06:04:26.590Z,58.52
2019-02-06T06:07:15.758Z,61.28
2019-02-06T06:10:14.456Z,61.88
2019-02-06T06:13:05.120Z,58.73
2019-02-06T06:15:54.078Z,51.37
2019-02-06T06:18:43.491Z,56.02
2019-02-06T06:21:32.254Z,55.08
2019-02-06T06:24:21.209Z,54.47
2019-02-06T06:27:10.581Z,59.27
2019-02-06T06:29:59.780Z,56.30
2019-02-06T06:32:49.628Z,53.20
2019-02-06T06:35:39.112Z,57.05
2019-02-06T06:38:28.482Z,51.02
2019-02-06T06:41:17.694Z,53.65
2019-02-06T06:44:07.115Z,55.03
2019-02-06T06:46:56.294Z,53.25
2019-02-06T06:49:45.758Z,47.05
2019-02-06T06:52:35.202Z,54.77
2019-02-06T06:55:25.121Z,49.33
2019-02-06T06:58:14.402Z,48.33
2019-02-06T07:01:03.124Z,53.38
2019-02-06T07:03:52.203Z,52.33
2019-02-06T07:06:41.437Z,48.05
2019-02-06T07:09:31.256Z,44.80
2019-02-06T07:12:20.610Z,43.58
2019-02-06T07:15:17.693Z,45.13
2019-02-06T07:18:06.800Z,45.43
2019-02-06T07:20:55.601Z,46.53
2019-02-06T07:23:45.499Z,45.88
2019-02-06T07:26:34.660Z,43.52
2019-02-06T07:29:24.160Z,46.02
2019-02-06T07:32:13.225Z,45.43
2019-02-06T07:35:02.679Z,44.50
2019-02-06T07:37:52.003Z,39.40
2019-02-06T07:40:41.367Z,39.53
2019-02-06T07:43:30.338Z,38.28
2019-02-06T07:46:19.188Z,35.28
2019-02-06T07:49:08.295Z,41.77
2019-02-06T07:51:57.225Z,36.90
2019-02-06T07:54:46.634Z,34.67
2019-02-06T07:57:35.764Z,32.65
2019-02-06T08:00:25.580Z,35.88
2019-02-06T08:03:14.480Z,35.95
2019-02-06T08:06:03.811Z,30.85
2019-02-06T08:08:53.389Z,30.30
2019-02-06T08:11:43.053Z,35.88
2019-02-06T08:14:32.441Z,28.73
2019-02-06T08:17:21.085Z,36.83
2019-02-06T08:20:17.645Z,31.25
2019-02-06T08:23:06.694Z,30.50
2019-02-06T08:25:56.282Z,27.93
2019-02-06T08:28:45.968Z,29.32
2019-02-06T08:31:34.874Z,26.45
2019-02-06T08:34:24.094Z,26.68
2019-02-06T08:37:13.014Z,30.23
2019-02-06T08:40:02.018Z,28.95
2019-02-06T08:42:51.012Z,27.10
2019-02-06T08:45:40.339Z,29.20
2019-02-06T08:48:30.212Z,29.25
2019-02-06T08:51:19.598Z,29.25
2019-02-06T08:54:12.286Z,24.90
2019-02-06T08:57:00.233Z,29.07
2019-02-06T08:59:49.657Z,23.70
2019-02-06T09:02:38.970Z,23.60
2019-02-06T09:05:28.068Z,22.55
2019-02-06T09:08:17.491Z,26.37
2019-02-06T09:11:07.040Z,22.17
2019-02-06T09:13:55.910Z,22.90
2019-02-06T09:16:45.190Z,25.35
2019-02-06T09:19:34.755Z,24.07
2019-02-06T09:22:23.947Z,22.52
2019-02-06T09:25:17.661Z,22.27
2019-02-06T09:28:06.614Z,24.27
2019-02-06T09:30:55.925Z,21.97
2019-02-06T09:33:45.304Z,22.62
2019-02-06T09:36:34.771Z,21.90
2019-02-06T09:39:24.246Z,25.85
2019-02-06T09:42:13.371Z,24.12
2019-02-06T09:45:02.843Z,21.82
2019-02-06T09:47:51.626Z,17.70
2019-02-06T09:50:41.526Z,20.97
2019-02-06T09:53:30.886Z,16.80
2019-02-06T09:56:20.474Z,16.50
2019-02-06T09:59:09.849Z,19.67
2019-02-06T10:01:58.896Z,21.57
2019-02-06T10:04:48.279Z,22.02
2019-02-06T10:07:37.310Z,17.42
2019-02-06T10:10:27.944Z,21.50
2019-02-06T10:13:17.308Z,19.60
2019-02-06T10:16:07.100Z,21.00
2019-02-06T10:18:56.145Z,17.50
2019-02-06T10:41:38.612Z,14.35
2019-02-06T10:47:15.583Z,21.30
2019-02-06T10:50:07.446Z,18.10
2019-02-06T10:55:45.183Z,15.00
2019-02-06T10:58:34.415Z,18.50
2019-02-06T11:04:11.227Z,16.50
2019-02-06T11:07:00.247Z,19.70
2019-02-06T11:09:49.976Z,16.00
2019-02-06T11:12:39.410Z,17.57
2019-02-06T11:15:29.422Z,15.60
2019-02-06T11:18:18.421Z,21.25
2019-02-06T11:21:08.253Z,16.82
2019-02-06T11:23:57.320Z,18.87
2019-02-06T11:26:46.806Z,15.60
2019-02-06T11:29:36.106Z,18.67
2019-02-06T11:32:25.181Z,20.90
2019-02-06T11:35:15.441Z,17.42
2019-02-06T11:38:06.016Z,19.62
2019-02-06T11:40:55.117Z,16.80
2019-02-06T11:43:44.490Z,17.52
2019-02-06T11:46:34.123Z,16.80
2019-02-06T11:49:25.078Z,17.82
2019-02-06T11:52:14.367Z,17.90
2019-02-06T11:55:05.347Z,15.78
2019-02-06T11:57:54.682Z,15.50
2019-02-06T12:00:50.952Z,20.40
2019-02-06T12:03:40.252Z,18.02
2019-02-06T12:06:29.346Z,18.12
2019-02-06T12:09:18.132Z,18.95
2019-02-06T12:12:07.724Z,18.35
2019-02-06T12:14:56.986Z,20.70
2019-02-06T12:17:46.496Z,19.40
2019-02-06T12:20:36.664Z,18.20
2019-02-06T12:23:32.220Z,17.75
2019-02-06T12:26:15.945Z,19.45
2019-02-06T12:29:05.259Z,17.60
2019-02-06T12:31:55.065Z,19.77
2019-02-06T12:34:44.267Z,19.98
2019-02-06T12:37:33.505Z,20.27
2019-02-06T12:40:24.149Z,20.20
2019-02-06T12:43:13.120Z,18.23
2019-02-06T12:46:01.702Z,18.55
2019-02-06T12:48:50.589Z,21.82
2019-02-06T12:51:40.684Z,21.05
2019-02-06T12:54:30.044Z,21.00
2019-02-06T12:57:19.836Z,20.72
2019-02-06T13:00:13.703Z,17.20
2019-02-06T13:03:03.303Z,19.67
2019-02-06T13:05:52.459Z,24.10
2019-02-06T13:08:41.673Z,19.17
2019-02-06T13:11:31.087Z,18.32
2019-02-06T13:14:20.177Z,20.17
2019-02-06T13:17:09.831Z,19.75
2019-02-06T13:19:59.155Z,20.27
2019-02-06T13:22:49.542Z,18.32
2019-02-06T13:25:38.768Z,19.05
2019-02-06T13:28:27.606Z,19.02
2019-02-06T13:31:17.198Z,19.50
2019-02-06T13:34:06.611Z,18.80
2019-02-06T13:36:55.640Z,19.35
2019-02-06T13:39:44.867Z,20.65
2019-02-06T13:42:34.174Z,19.30
2019-02-06T13:45:26.792Z,19.70
2019-02-06T13:48:16.143Z,22.10
2019-02-06T13:51:16.448Z,24.12
2019-02-06T13:53:55.891Z,19.50
2019-02-06T13:56:45.539Z,18.85
2019-02-06T13:59:34.819Z,23.22
2019-02-06T14:02:24.456Z,26.87
2019-02-06T14:05:15.105Z,17.65
2019-02-06T14:08:10.998Z,20.88
2019-02-06T14:11:01.172Z,18.62
2019-02-06T14:13:49.833Z,17.30
2019-02-06T14:16:38.925Z,19.02
2019-02-06T14:19:27.991Z,16.95
2019-02-06T14:22:17.459Z,15.40
2019-02-06T14:25:17.574Z,20.37
2019-02-06T14:28:27.860Z,22.13
2019-02-06T14:31:47.426Z,19.87
2019-02-06T14:35:01.961Z,19.80
2019-02-06T14:38:04.058Z,14.87
2019-02-06T14:41:18.338Z,18.42
2019-02-06T14:44:48.335Z,17.35
2019-02-06T14:47:57.573Z,18.05
2019-02-06T14:50:57.429Z,16.65
2019-02-06T14:54:00.506Z,19.98
2019-02-06T14:57:20.152Z,17.00
2019-02-06T15:00:59.291Z,17.27
2019-02-06T15:03:55.808Z,21.30
2019-02-06T15:07:01.040Z,17.90
2019-02-06T15:10:16.433Z,17.17
2019-02-06T15:13:13.420Z,20.27
2019-02-06T15:16:13.038Z,18.17
2019-02-06T15:19:27.121Z,17.10
2019-02-06T15:22:49.433Z,25.80
2019-02-06T15:26:07.970Z,21.02
2019-02-06T15:29:24.373Z,18.02
2019-02-06T15:32:24.213Z,18.65
2019-02-06T15:35:33.011Z,17.52
2019-02-06T15:38:32.462Z,21.85
2019-02-06T15:41:38.690Z,15.72
2019-02-06T15:44:35.052Z,21.20
2019-02-06T15:47:51.655Z,23.30
2019-02-06T15:50:48.241Z,18.10
2019-02-06T15:54:06.444Z,21.48
2019-02-06T15:57:17.938Z,14.80
2019-02-06T16:00:57.286Z,20.68
2019-02-06T16:04:30.703Z,21.42
2019-02-06T16:07:57.347Z,19.05
2019-02-06T16:11:08.009Z,20.35
2019-02-06T16:14:35.246Z,24.75
2019-02-06T16:17:57.728Z,22.15
2019-02-06T16:20:59.818Z,22.17
2019-02-06T16:23:59.809Z,27.82
2019-02-06T16:27:22.148Z,24.07
2019-02-06T16:30:27.793Z,27.73
2019-02-06T16:33:36.580Z,30.25
2019-02-06T16:36:39.843Z,28.87
2019-02-06T16:39:47.951Z,24.85
2019-02-06T16:42:50.315Z,27.15
2019-02-06T16:46:15.937Z,32.88
2019-02-06T16:49:12.471Z,33.78
2019-02-06T16:52:15.877Z,26.37
2019-02-06T16:55:38.930Z,32.10
2019-02-06T16:58:52.369Z,26.37
2019-02-06T17:02:34.576Z,30.37
2019-02-06T17:05:40.102Z,33.88
2019-02-06T17:08:52.854Z,30.80
2019-02-06T17:12:15.543Z,32.42
2019-02-06T17:15:20.348Z,32.50
2019-02-06T17:18:32.392Z,30.95
2019-02-06T17:21:34.681Z,34.73
2019-02-06T17:24:43.327Z,35.00
2019-02-06T17:28:07.230Z,35.90
2019-02-06T17:31:34.203Z,37.93
2019-02-06T17:34:45.704Z,38.90
2019-02-06T17:37:41.959Z,38.95
2019-02-06T17:40:56.607Z,37.00
2019-02-06T17:44:16.557Z,35.52
2019-02-06T17:47:24.658Z,36.03
2019-02-06T17:50:36.865Z,35.73
2019-02-06T17:53:57.082Z,42.20
2019-02-06T17:56:46.047Z,44.08
2019-02-06T17:59:36.007Z,42.23
2019-02-06T18:02:24.800Z,39.85
2019-02-06T18:05:14.255Z,43.48
2019-02-06T18:08:03.420Z,48.78
2019-02-06T18:10:52.687Z,48.35
2019-02-06T18:13:41.833Z,46.55
2019-02-06T18:16:30.746Z,50.10
2019-02-06T18:19:20.159Z,47.05
2019-02-06T18:22:10.128Z,48.17
2019-02-06T18:24:59.323Z,51.92
2019-02-06T18:27:48.661Z,51.90
2019-02-06T18:30:37.975Z,48.03
2019-02-06T18:33:28.775Z,50.78
2019-02-06T18:36:18.791Z,47.88
2019-02-06T18:39:10.784Z,52.20
2019-02-06T18:42:00.887Z,53.45
2019-02-06T18:44:50.569Z,48.73
2019-02-06T18:47:39.229Z,47.48
2019-02-06T18:50:34.396Z,62.27
2019-02-06T18:53:23.254Z,55.23
2019-02-06T18:56:12.560Z,56.85
2019-02-06T18:59:01.848Z,48.80
2019-02-06T19:01:51.739Z,47.98
2019-02-06T19:04:41.046Z,50.25
2019-02-06T19:07:30.269Z,52.55
2019-02-06T19:10:27.028Z,56.40
2019-02-06T19:13:16.276Z,51.98
2019-02-06T19:16:06.333Z,43.37
2019-02-06T19:18:55.553Z,48.15
2019-02-06T19:21:44.806Z,50.40
2019-02-06T19:24:33.861Z,39.98
2019-02-06T19:27:23.669Z,39.92
2019-02-06T19:30:34.526Z,42.00
2019-02-06T19:33:24.050Z,41.55
2019-02-06T19:36:13.064Z,40.90
2019-02-06T19:39:03.941Z,40.28
2019-02-06T19:41:53.029Z,43.68
2019-02-06T19:44:42.396Z,49.80
2019-02-06T19:47:31.673Z,50.70
2019-02-06T19:50:33.942Z,42.90
2019-02-06T19:53:22.459Z,41.65
2019-02-06T19:56:11.655Z,51.33
2019-02-06T19:59:00.982Z,44.45
2019-02-06T20:01:50.099Z,47.00
2019-02-06T20:04:39.058Z,45.83
2019-02-06T20:07:28.635Z,43.20
2019-02-06T20:10:33.880Z,43.58
2019-02-06T20:13:22.714Z,44.33
2019-02-06T20:16:12.827Z,45.33
2019-02-06T20:19:01.906Z,46.95
2019-02-06T20:21:51.649Z,45.65
2019-02-06T20:24:40.895Z,44.77
2019-02-06T20:27:30.011Z,43.40
2019-02-06T20:30:33.857Z,42.65
2019-02-06T20:33:22.924Z,46.40
2019-02-06T20:36:12.050Z,49.20
2019-02-06T20:39:00.714Z,42.25
2019-02-06T20:41:50.184Z,46.13
2019-02-06T20:44:39.518Z,50.10
2019-02-06T20:47:28.616Z,48.98
2019-02-06T20:50:25.056Z,42.90
2019-02-06T20:53:14.614Z,53.13
2019-02-06T20:56:04.010Z,49.00
2019-02-06T20:58:53.497Z,50.83
2019-02-06T21:01:42.970Z,49.85
2019-02-06T21:04:32.231Z,47.78
2019-02-06T21:07:21.498Z,47.00
2019-02-06T21:10:20.461Z,52.25
2019-02-06T21:13:09.420Z,43.20
2019-02-06T21:15:59.129Z,44.90
2019-02-06T21:18:48.931Z,42.20
2019-02-06T21:21:38.054Z,47.90
2019-02-06T21:24:27.677Z,43.15
2019-02-06T21:27:16.825Z,47.48
2019-02-06T21:30:18.711Z,46.45
2019-02-06T21:33:08.060Z,67.08
2019-02-06T21:35:56.713Z,45.23
2019-02-06T21:38:45.507Z,48.28
2019-02-06T21:41:34.637Z,45.52
2019-02-06T21:44:24.082Z,54.45
2019-02-06T21:47:13.891Z,47.53
2019-02-06T21:50:02.529Z,49.08
2019-02-06T21:52:51.507Z,50.00
2019-02-06T21:55:40.613Z,48.08
2019-02-06T21:58:30.253Z,49.98
2019-02-06T22:01:20.338Z,50.92
2019-02-06T22:04:11.006Z,48.68
2019-02-06T22:07:00.635Z,54.90
2019-02-06T22:09:49.604Z,49.95
2019-02-06T22:12:38.861Z,49.90
2019-02-06T22:15:30.506Z,53.90
2019-02-06T22:18:20.259Z,51.65
2019-02-06T22:21:09.413Z,51.15
2019-02-06T22:23:59.204Z,60.55
2019-02-06T22:26:48.582Z,56.90
2019-02-06T22:29:37.734Z,57.53
2019-02-06T22:32:27.216Z,70.12
2019-02-06T22:35:16.860Z,56.83
2019-02-06T22:38:06.782Z,57.55
2019-02-06T22:40:55.722Z,57.13
2019-02-06T22:43:45.424Z,61.80
2019-02-06T22:46:34.630Z,68.22
2019-02-06T22:49:23.545Z,61.30
2019-02-06T22:52:12.878Z,56.30
2019-02-06T22:55:02.092Z,58.65
2019-02-06T22:57:51.164Z,65.40
2019-02-06T23:00:49.595Z,58.08
2019-02-06T23:03:39.937Z,62.27
2019-02-06T23:06:28.960Z,56.20
2019-02-06T23:09:18.276Z,64.03
2019-02-06T23:12:08.148Z,57.35
2019-02-06T23:14:57.319Z,55.63
2019-02-06T23:17:46.789Z,60.73
2019-02-06T23:20:35.956Z,64.95
2019-02-06T23:23:25.535Z,58.33
2019-02-06T23:26:15.205Z,57.30
2019-02-06T23:29:05.918Z,63.48
2019-02-06T23:31:54.631Z,60.95
2019-02-06T23:34:43.843Z,63.42
2019-02-06T23:37:32.767Z,61.58
2019-02-06T23:40:22.173Z,55.23
2019-02-06T23:43:11.358Z,54.18
2019-02-06T23:46:00.716Z,61.48
2019-02-06T23:48:50.190Z,65.83
2019-02-06T23:51:39.360Z,65.85
2019-02-06T23:54:28.724Z,64.15
2019-02-06T23:57:17.519Z,63.60
